createdAt,value
2023-01-21T00:03:09.279Z,32.17
2023-01-21T00:08:11.253Z,28.87
2023-01-21T00:13:13.155Z,28.57
2023-01-21T00:18:21.169Z,26.50
2023-01-21T00:23:23.486Z,28.00
2023-01-21T00:28:25.881Z,27.63
2023-01-21T00:33:28.430Z,28.43
2023-01-21T00:38:30.975Z,28.77
2023-01-21T00:43:35.737Z,25.87
2023-01-21T00:48:40.749Z,26.77
2023-01-21T00:53:42.465Z,29.20
2023-01-21T00:58:47.457Z,26.87
2023-01-21T01:03:51.058Z,27.33
2023-01-21T01:14:24.462Z,26.70
2023-01-21T05:25:06.895Z,25.67
2023-01-21T06:20:53.727Z,28.97
2023-01-21T06:41:38.493Z,28.13
2023-01-21T06:52:28.134Z,35.30
2023-01-21T07:08:45.574Z,30.83
2023-01-21T07:41:06.906Z,32.20
2023-01-21T07:46:09.041Z,32.20
2023-01-21T08:02:01.457Z,34.33
2023-01-21T08:07:12.013Z,32.70
2023-01-21T08:12:27.249Z,34.40
2023-01-21T08:17:34.793Z,35.60
2023-01-21T08:22:38.237Z,34.60
2023-01-21T08:27:43.037Z,33.97
2023-01-21T08:32:46.170Z,32.80
2023-01-21T08:37:48.239Z,32.07
2023-01-21T08:42:50.203Z,33.47
2023-01-21T08:47:55.357Z,35.10
2023-01-21T08:52:57.124Z,34.33
2023-01-21T08:58:01.340Z,33.50
2023-01-21T09:03:03.485Z,31.73
2023-01-21T09:08:05.361Z,34.33
2023-01-21T09:13:08.661Z,31.57
2023-01-21T09:18:13.119Z,31.20
2023-01-21T09:23:24.585Z,36.97
2023-01-21T09:28:29.669Z,37.57
2023-01-21T09:33:36.493Z,36.10
2023-01-21T09:38:40.413Z,33.80
2023-01-21T09:59:54.909Z,31.47
2023-01-21T10:05:11.996Z,30.00
2023-01-21T10:10:50.237Z,32.67
2023-01-21T10:43:39.117Z,31.73
2023-01-21T10:49:03.576Z,31.70
2023-01-21T10:54:51.888Z,34.27
2023-01-21T10:59:55.588Z,30.47
2023-01-21T11:05:02.194Z,32.30
2023-01-21T11:31:46.170Z,27.83
2023-01-21T11:37:08.459Z,26.90
2023-01-21T11:43:55.188Z,24.77
2023-01-21T12:09:34.065Z,23.47
2023-01-21T12:20:35.457Z,17.77
2023-01-21T12:31:17.225Z,16.27
2023-01-21T12:36:25.231Z,16.60
2023-01-21T12:41:30.701Z,16.33
2023-01-21T12:46:41.680Z,36.10
2023-01-21T12:51:57.799Z,11.43
2023-01-21T13:02:26.182Z,10.97
2023-01-21T13:07:46.887Z,11.17
2023-01-21T13:13:18.806Z,10.87
2023-01-21T13:18:27.588Z,10.30
2023-01-21T13:23:46.776Z,10.60
2023-01-21T13:29:09.988Z,11.07
2023-01-21T18:05:06.095Z,21.50
2023-01-21T18:11:08.616Z,22.77
2023-01-21T18:16:18.136Z,22.33
2023-01-21T18:34:05.135Z,22.53
2023-01-21T18:39:25.812Z,21.57
2023-01-21T18:44:32.179Z,22.47
2023-01-21T18:55:49.813Z,21.83
2023-01-21T19:00:51.833Z,21.37
2023-01-21T19:12:25.199Z,21.13
2023-01-21T19:17:33.155Z,20.60
2023-01-21T19:29:13.834Z,18.77
2023-01-21T19:35:14.247Z,19.77
2023-01-21T19:41:14.895Z,20.40
2023-01-21T20:05:59.296Z,22.93
2023-01-21T20:24:23.160Z,19.43
2023-01-21T20:30:02.607Z,18.83
2023-01-21T20:35:11.510Z,22.53
2023-01-21T20:40:28.359Z,21.30
2023-01-21T20:46:12.975Z,18.27
2023-01-21T20:57:38.771Z,19.13
2023-01-21T21:03:40.976Z,18.57
2023-01-21T21:08:43.299Z,18.30
2023-01-21T21:13:47.629Z,19.10
2023-01-21T21:18:55.051Z,19.63
2023-01-21T21:24:20.646Z,20.90
2023-01-21T21:29:22.444Z,21.80
2023-01-21T21:34:29.472Z,19.27
2023-01-21T21:44:59.330Z,19.77
2023-01-21T21:50:02.096Z,18.83
2023-01-21T22:00:29.694Z,18.47
2023-01-21T22:06:17.977Z,22.57
2023-01-21T22:16:40.827Z,18.03
2023-01-21T22:21:42.554Z,17.30
2023-01-21T22:26:44.357Z,16.70
2023-01-21T22:31:58.486Z,15.10
2023-01-21T22:37:07.131Z,13.10
2023-01-21T22:42:21.135Z,12.57
2023-01-21T22:47:22.883Z,13.00
2023-01-21T22:52:28.371Z,14.17
2023-01-21T22:57:43.834Z,14.17
2023-01-21T23:02:51.773Z,12.77
2023-01-21T23:07:54.291Z,11.87
2023-01-21T23:12:59.006Z,12.30
2023-01-21T23:18:00.867Z,12.60
2023-01-21T23:23:02.975Z,10.97
2023-01-21T23:28:41.629Z,12.17
2023-01-21T23:40:02.180Z,11.80
2023-01-21T23:45:57.164Z,11.70
2023-01-21T23:51:07.739Z,10.97
2023-01-21T23:56:13.579Z,12.73
